MMZO/ZLO METAR and TAF weather

Enter ICAO airport designator
Station Type Date Time Source
MMZO METAR 2019/02/22 21:41 UTC NOAA

MMZO 222141Z 26015KT 8SM FEW020 SCT100 BKN210 28/21 A2990 RMK 8/134 HZY


Station Type Date Time Source
MMZO Decoded METAR 2019/02/22 21:41 UTC NOAA

Manzanillo International , Mexico (MMZO) 19-09N 104-34W
Feb 22, 2019 - 04:41 PM EST / 2019.02.22 2141 UTC
Wind: from the W (260 degrees) at 17 MPH (15 KT):0
Visibility: 8 mile(s):0
Sky conditions: mostly cloudy
Temperature: 82 F (28 C)
Dew Point: 69 F (21 C)
Relative Humidity: 65%
Pressure (altimeter): 29.9 in. Hg (1012 hPa)
ob: MMZO 222141Z 26015KT 8SM FEW020 SCT100 BKN210 28/21 A2990 RMK 8/134 HZY
cycle: 21

Station Type Date Time Source
MMZO TAF 2019/02/22 18:33 UTC NOAA

TAF MMZO 221630Z 2218/2318 23006KT P6SM SCT025 BKN100
BECMG 2220/2221 23012KT
FM230200 32005KT P6SM BKN100 BKN250
BECMG 2305/2306 00000KT
FM231200 00000KT 6SM HZ SCT100 BKN250


Example: see airport list